Time;durP1;ratioP1;P1;durP2;ratioP2;P2;SDS_P1;SDS_P2;PMS_P1;PMS_P2;Temp;Humidity;BMP_temperature;BMP_pressure;BME280_temperature;BME280_humidity;BME280_pressure;Samples;Min_cycle;Max_cycle;Signal;HPM_P1;HPM_P2
2022/09/22 00:02:22;;;;;;;2.00;1.73;;;10.00;99.90;;;;;;5163863;28;20059;-72
2022/09/22 00:04:54;;;;;;;2.25;1.70;;;10.10;99.90;;;;;;5197639;28;20502;-72
2022/09/22 00:07:25;;;;;;;4.10;1.90;;;10.10;99.90;;;;;;5237714;28;20044;-72
2022/09/22 00:10:02;;;;;;;3.03;1.80;;;10.10;99.90;;;;;;5221086;28;20020;-72
2022/09/22 00:12:37;;;;;;;1.88;1.70;;;10.00;99.90;;;;;;5220096;28;20036;-72
2022/09/22 00:15:14;;;;;;;3.75;2.20;;;10.00;99.90;;;;;;5186801;28;20053;-72
2022/09/22 00:17:49;;;;;;;2.13;1.92;;;10.00;99.90;;;;;;5250215;28;20496;-73
2022/09/22 00:20:25;;;;;;;2.10;1.90;;;9.90;99.90;;;;;;5225569;28;20054;-73
2022/09/22 00:22:57;;;;;;;2.28;1.55;;;9.90;99.90;;;;;;5254550;28;20032;-73
2022/09/22 00:25:28;;;;;;;1.95;1.70;;;9.80;99.90;;;;;;5233827;28;20031;-72
2022/09/22 00:28:09;;;;;;;4.55;1.77;;;9.70;99.90;;;;;;5208894;28;20037;-74
2022/09/22 00:30:41;;;;;;;2.10;1.90;;;9.70;99.90;;;;;;5221155;28;20383;-73
2022/09/22 00:33:13;;;;;;;1.90;1.80;;;9.70;99.90;;;;;;5235268;28;20044;-73
2022/09/22 00:35:55;;;;;;;2.65;1.90;;;9.70;99.90;;;;;;5238953;28;20157;-72
2022/09/22 00:38:32;;;;;;;2.80;2.00;;;9.70;99.90;;;;;;5251523;28;20044;-72
2022/09/22 00:41:05;;;;;;;2.78;1.80;;;9.70;99.90;;;;;;5204567;28;20471;-73
2022/09/22 00:43:37;;;;;;;1.73;1.63;;;9.60;99.90;;;;;;5221116;28;20063;-73
2022/09/22 00:46:29;;;;;;;2.15;1.85;;;9.60;99.90;;;;;;5220741;28;20041;-73
2022/09/22 00:49:04;;;;;;;1.98;1.52;;;9.60;99.90;;;;;;5183007;28;20036;-73
2022/09/22 00:51:38;;;;;;;2.28;1.80;;;9.60;99.90;;;;;;5199235;28;20039;-74
2022/09/22 00:54:15;;;;;;;3.22;1.80;;;9.50;99.90;;;;;;5204479;28;20037;-73
2022/09/22 00:56:57;;;;;;;2.25;1.60;;;9.50;99.90;;;;;;5191089;28;20048;-73
2022/09/22 00:59:28;;;;;;;1.83;1.55;;;9.50;99.90;;;;;;5215074;28;20041;-73
2022/09/22 01:02:00;;;;;;;1.83;1.73;;;9.40;99.90;;;;;;5224472;28;20034;-73
2022/09/22 01:04:34;;;;;;;2.25;2.05;;;9.50;99.90;;;;;;5200581;28;20053;-74
2022/09/22 01:07:06;;;;;;;;;;;9.40;99.90;;;;;;5197541;28;20025;-73
2022/09/22 01:09:38;;;;;;;2.47;1.60;;;9.40;99.90;;;;;;5217204;28;19925;-73
2022/09/22 01:12:12;;;;;;;2.63;2.05;;;9.50;99.90;;;;;;5200602;28;20037;-74
2022/09/22 01:14:52;;;;;;;2.28;2.08;;;9.50;99.90;;;;;;5200230;28;20059;-73
2022/09/22 01:17:41;;;;;;;2.75;1.95;;;9.50;99.90;;;;;;5216589;28;20049;-73
2022/09/22 01:20:49;;;;;;;1.98;1.75;;;9.50;99.90;;;;;;5216736;28;20135;-73
2022/09/22 01:24:03;;;;;;;1.70;1.60;;;9.50;99.90;;;;;;5216353;28;20043;-73
2022/09/22 01:27:02;;;;;;;2.28;1.98;;;9.40;99.90;;;;;;5207628;28;20037;-71
2022/09/22 01:30:08;;;;;;;2.10;1.83;;;9.40;99.90;;;;;;5216140;28;20032;-72
2022/09/22 01:33:10;;;;;;;2.72;1.60;;;9.40;99.90;;;;;;5198553;28;20028;-71
2022/09/22 01:36:01;;;;;;;1.90;1.80;;;9.40;99.90;;;;;;5211069;28;20043;-72
2022/09/22 01:38:45;;;;;;;3.45;1.88;;;9.40;99.90;;;;;;5200343;28;20033;-72
2022/09/22 01:41:36;;;;;;;2.35;1.90;;;9.60;99.90;;;;;;5219438;28;20031;-71
2022/09/22 01:44:27;;;;;;;2.00;1.80;;;9.50;99.90;;;;;;5202476;28;20049;-73
2022/09/22 01:47:23;;;;;;;2.58;2.00;;;9.60;99.90;;;;;;5202633;28;20033;-72
2022/09/22 01:50:31;;;;;;;1.95;1.80;;;9.50;99.90;;;;;;5201299;28;20036;-73
2022/09/22 01:53:13;;;;;;;1.90;1.80;;;9.60;99.90;;;;;;5178405;28;20076;-73
2022/09/22 01:55:51;;;;;;;2.30;1.90;;;9.60;99.90;;;;;;5177654;28;20038;-73
2022/09/22 01:58:36;;;;;;;4.53;1.80;;;9.60;99.90;;;;;;5156068;28;20042;-74
2022/09/22 02:01:30;;;;;;;2.60;1.65;;;9.60;99.90;;;;;;5153244;28;20048;-74
2022/09/22 02:04:24;;;;;;;3.67;1.83;;;9.50;99.90;;;;;;5170975;28;20040;-73
2022/09/22 02:07:09;;;;;;;1.60;1.48;;;9.50;99.90;;;;;;5133392;28;20042;-73
2022/09/22 02:09:46;;;;;;;3.03;1.90;;;9.50;99.90;;;;;;5156156;28;20045;-73
2022/09/22 02:12:20;;;;;;;2.00;1.80;;;9.50;99.90;;;;;;5153592;28;20385;-73
2022/09/22 02:14:54;;;;;;;3.13;1.88;;;9.50;99.90;;;;;;5158618;28;20049;-73
2022/09/22 02:17:28;;;;;;;2.40;2.13;;;9.50;99.90;;;;;;5176782;28;20716;-73
2022/09/22 02:19:59;;;;;;;2.60;2.28;;;9.50;99.90;;;;;;5146852;28;20290;-73
2022/09/22 02:22:34;;;;;;;2.30;2.10;;;9.50;99.90;;;;;;5140544;28;20064;-73
2022/09/22 02:25:09;;;;;;;2.38;1.98;;;9.50;99.90;;;;;;5162613;28;20604;-73
2022/09/22 02:27:44;;;;;;;2.33;2.05;;;9.50;99.90;;;;;;5214892;28;20434;-74
2022/09/22 02:30:16;;;;;;;3.25;2.00;;;9.40;99.90;;;;;;5214669;28;20056;-73
2022/09/22 02:32:50;;;;;;;3.55;1.90;;;9.40;99.90;;;;;;5179761;28;20045;-73
2022/09/22 02:35:31;;;;;;;;;;;9.40;99.90;;;;;;5181745;28;20036;-73
2022/09/22 02:38:29;;;;;;;2.17;1.95;;;9.40;99.90;;;;;;5196760;28;19912;-73
2022/09/22 02:41:14;;;;;;;2.60;2.20;;;9.40;99.90;;;;;;5201624;28;20032;-73
2022/09/22 02:43:58;;;;;;;2.83;2.40;;;9.30;99.90;;;;;;5198559;28;20033;-74
2022/09/22 02:46:58;;;;;;;3.05;2.33;;;9.30;99.90;;;;;;5184609;28;20045;-73
2022/09/22 02:49:35;;;;;;;2.13;1.90;;;9.30;99.90;;;;;;5208216;28;20033;-73
2022/09/22 02:52:11;;;;;;;2.22;1.80;;;9.30;99.90;;;;;;5200100;28;20039;-73
2022/09/22 02:54:43;;;;;;;1.80;1.60;;;9.40;99.90;;;;;;5195242;28;20045;-73
2022/09/22 02:57:17;;;;;;;2.72;2.00;;;9.40;99.90;;;;;;5181457;28;20356;-73
2022/09/22 02:59:52;;;;;;;1.83;1.58;;;9.50;99.90;;;;;;5214485;28;20227;-73
2022/09/22 03:02:26;;;;;;;;;;;9.50;99.90;;;;;;5198325;28;20059;-73
2022/09/22 03:05:03;;;;;;;1.77;1.67;;;9.50;99.90;;;;;;5192805;28;19920;-74
2022/09/22 03:07:37;;;;;;;3.25;2.30;;;9.40;99.90;;;;;;5163816;28;20456;-73
2022/09/22 03:10:11;;;;;;;2.60;2.40;;;9.40;99.90;;;;;;5221059;28;20035;-74
2022/09/22 03:12:46;;;;;;;;;;;9.30;99.90;;;;;;5200313;28;20049;-74
2022/09/22 03:15:17;;;;;;;2.03;1.83;;;9.10;99.90;;;;;;5213031;28;19913;-73
2022/09/22 03:17:49;;;;;;;2.17;1.92;;;9.00;99.90;;;;;;5216194;28;20049;-74
2022/09/22 03:20:21;;;;;;;2.63;2.30;;;8.90;99.90;;;;;;5200208;28;20039;-74
2022/09/22 03:22:57;;;;;;;3.88;2.13;;;8.90;99.90;;;;;;5215893;28;20051;-71
2022/09/22 03:25:29;;;;;;;2.90;2.08;;;8.90;99.90;;;;;;5196384;28;20034;-73
2022/09/22 03:28:04;;;;;;;1.75;1.58;;;9.10;99.90;;;;;;5202031;28;20033;-73
2022/09/22 03:30:36;;;;;;;2.03;1.83;;;9.20;99.90;;;;;;5198101;28;20060;-73
2022/09/22 03:33:12;;;;;;;2.20;2.00;;;9.40;99.90;;;;;;5207712;28;20509;-73
2022/09/22 03:35:44;;;;;;;1.67;1.58;;;9.40;99.90;;;;;;5220661;28;20544;-73
2022/09/22 03:38:20;;;;;;;2.08;1.88;;;9.50;99.90;;;;;;5237606;28;20045;-73
2022/09/22 03:40:53;;;;;;;5.38;2.88;;;9.50;99.90;;;;;;5220722;28;20036;-73
2022/09/22 03:43:25;;;;;;;2.70;1.90;;;9.60;99.90;;;;;;5198912;28;20043;-73
2022/09/22 03:45:58;;;;;;;5.53;2.20;;;9.60;99.90;;;;;;5198523;28;20048;-73
2022/09/22 03:48:30;;;;;;;1.85;1.75;;;9.60;99.90;;;;;;5183217;28;20469;-73
2022/09/22 03:51:02;;;;;;;2.10;1.60;;;9.70;99.90;;;;;;5199995;28;20040;-73
2022/09/22 03:53:35;;;;;;;2.17;1.80;;;9.80;99.90;;;;;;5218707;28;20076;-73
2022/09/22 03:56:13;;;;;;;3.72;1.85;;;9.80;99.90;;;;;;5182143;28;20036;-72
2022/09/22 03:58:48;;;;;;;2.30;2.10;;;9.80;99.90;;;;;;5198069;28;20453;-73
2022/09/22 04:01:19;;;;;;;2.20;1.80;;;9.90;99.90;;;;;;5198406;28;20428;-73
2022/09/22 04:03:54;;;;;;;2.25;1.90;;;9.80;99.90;;;;;;5213758;28;20035;-72
2022/09/22 04:06:27;;;;;;;1.90;1.70;;;9.70;99.90;;;;;;5196314;28;20068;-73
2022/09/22 04:09:02;;;;;;;2.67;2.47;;;9.60;99.90;;;;;;5201271;28;20043;-73
2022/09/22 04:11:36;;;;;;;4.32;2.13;;;9.50;99.90;;;;;;5202370;28;20037;-72
2022/09/22 04:14:11;;;;;;;2.88;2.30;;;9.30;99.90;;;;;;5192531;28;20036;-74
2022/09/22 04:16:44;;;;;;;2.10;1.90;;;9.10;99.90;;;;;;5198025;28;20099;-73
2022/09/22 04:19:16;;;;;;;2.30;1.90;;;9.00;99.90;;;;;;5217487;28;20040;-73
2022/09/22 04:21:47;;;;;;;4.00;2.45;;;8.90;99.90;;;;;;5219335;28;20608;-73
2022/09/22 04:24:24;;;;;;;2.67;2.00;;;8.60;99.90;;;;;;5182046;28;20043;-73
2022/09/22 04:27:00;;;;;;;4.07;1.77;;;8.40;99.90;;;;;;5216464;28;20029;-73
2022/09/22 04:29:35;;;;;;;1.77;1.67;;;8.30;99.90;;;;;;5213910;28;20540;-73
2022/09/22 04:32:09;;;;;;;1.92;1.55;;;8.20;99.90;;;;;;5193505;28;20044;-73
2022/09/22 04:34:41;;;;;;;2.13;1.90;;;8.20;99.90;;;;;;5179601;28;20033;-74
2022/09/22 04:37:13;;;;;;;2.35;2.00;;;8.20;99.90;;;;;;5180047;28;20045;-72
2022/09/22 04:39:44;;;;;;;2.20;2.00;;;8.20;99.90;;;;;;5180618;28;20037;-72
2022/09/22 04:42:18;;;;;;;3.33;2.17;;;8.20;99.90;;;;;;5198551;28;20043;-73
2022/09/22 04:44:55;;;;;;;3.08;2.22;;;8.20;99.90;;;;;;5200915;28;20047;-73
2022/09/22 04:47:31;;;;;;;2.95;2.13;;;8.30;99.90;;;;;;5202251;28;20041;-73
2022/09/22 04:50:03;;;;;;;4.65;2.08;;;8.30;99.90;;;;;;5199113;28;20037;-73
2022/09/22 04:52:35;;;;;;;3.25;2.20;;;8.50;99.90;;;;;;5214267;28;20037;-74
2022/09/22 04:55:08;;;;;;;3.53;2.63;;;8.60;99.90;;;;;;5193896;28;20039;-73
2022/09/22 04:57:48;;;;;;;2.05;1.80;;;8.70;99.90;;;;;;5208385;28;20029;-73
2022/09/22 05:00:26;;;;;;;2.08;1.88;;;8.80;99.90;;;;;;5201559;28;20038;-73
2022/09/22 05:03:00;;;;;;;3.55;2.00;;;8.90;99.90;;;;;;5207881;28;20036;-73
2022/09/22 05:05:32;;;;;;;;;;;9.00;99.90;;;;;;5219828;28;20047;-73
2022/09/22 05:08:06;;;;;;;2.17;1.98;;;9.10;99.90;;;;;;5213525;28;20398;-73
2022/09/22 05:10:37;;;;;;;;;;;9.20;99.90;;;;;;5209572;28;20211;-73
2022/09/22 05:13:12;;;;;;;4.53;1.83;;;9.20;99.90;;;;;;5216751;28;19917;-73
2022/09/22 05:15:47;;;;;;;2.00;1.80;;;9.20;99.90;;;;;;5214132;28;20052;-73
2022/09/22 05:18:18;;;;;;;;;;;9.20;99.90;;;;;;5209214;28;20067;-73
2022/09/22 05:20:49;;;;;;;2.28;2.08;;;9.30;99.90;;;;;;5217716;28;19919;-73
2022/09/22 05:23:23;;;;;;;1.75;1.65;;;9.40;99.90;;;;;;5220369;28;20036;-73
2022/09/22 05:25:55;;;;;;;2.60;1.95;;;9.50;99.90;;;;;;5228657;28;20025;-73
2022/09/22 05:28:27;;;;;;;4.00;2.28;;;9.60;99.90;;;;;;5239225;28;20037;-73
2022/09/22 05:31:02;;;;;;;3.38;2.50;;;9.60;99.90;;;;;;5231383;28;20610;-74
2022/09/22 05:33:34;;;;;;;3.63;2.08;;;9.70;99.90;;;;;;5202243;28;20036;-73
2022/09/22 05:36:05;;;;;;;2.35;2.15;;;9.80;99.90;;;;;;5236164;28;20075;-73
2022/09/22 05:38:39;;;;;;;2.50;2.30;;;9.80;99.90;;;;;;5220399;28;20033;-73
2022/09/22 05:41:11;;;;;;;4.28;2.47;;;9.90;99.90;;;;;;5220071;28;20033;-73
2022/09/22 05:43:48;;;;;;;2.00;1.73;;;10.00;99.90;;;;;;5220353;28;20039;-73
2022/09/22 05:46:19;;;;;;;2.33;2.13;;;10.10;99.90;;;;;;5219482;28;20035;-73
2022/09/22 05:49:04;;;;;;;2.85;1.90;;;10.20;99.90;;;;;;5220154;28;20039;-73
2022/09/22 05:51:38;;;;;;;2.58;2.13;;;10.30;99.90;;;;;;5222471;28;20048;-73
2022/09/22 05:54:12;;;;;;;2.10;2.00;;;10.50;99.90;;;;;;5225834;28;20063;-73
2022/09/22 05:56:46;;;;;;;;;;;10.50;99.90;;;;;;5201451;28;20025;-73
2022/09/22 05:59:18;;;;;;;3.05;2.40;;;10.60;99.90;;;;;;5201615;28;20259;-73
2022/09/22 06:01:50;;;;;;;2.20;2.00;;;10.60;99.90;;;;;;5204889;28;20646;-73
2022/09/22 06:04:25;;;;;;;4.40;1.98;;;10.60;99.90;;;;;;5223814;28;20049;-74
2022/09/22 06:07:02;;;;;;;3.67;1.98;;;10.70;99.90;;;;;;5217337;28;20032;-73
2022/09/22 06:09:34;;;;;;;2.33;2.00;;;10.80;99.90;;;;;;5220007;28;20048;-71
2022/09/22 06:12:07;;;;;;;2.85;2.28;;;10.90;99.90;;;;;;5186736;28;20049;-71
2022/09/22 06:14:42;;;;;;;3.13;2.08;;;11.00;99.90;;;;;;5222419;28;20044;-72
2022/09/22 06:17:16;;;;;;;2.28;1.92;;;11.00;99.90;;;;;;5213452;28;20036;-72
2022/09/22 06:19:49;;;;;;;3.17;1.90;;;11.00;99.90;;;;;;5239140;28;20054;-72
2022/09/22 06:22:22;;;;;;;2.30;2.10;;;11.20;99.90;;;;;;5244777;28;20044;-74
2022/09/22 06:24:55;;;;;;;3.55;2.42;;;11.10;99.90;;;;;;5233165;28;20124;-74
2022/09/22 06:27:29;;;;;;;2.15;1.90;;;11.00;99.90;;;;;;5218399;28;20047;-71
2022/09/22 06:30:01;;;;;;;1.95;1.80;;;10.90;99.90;;;;;;5218635;28;20032;-71
2022/09/22 06:32:38;;;;;;;4.35;1.92;;;10.90;99.90;;;;;;5203490;28;20040;-71
2022/09/22 06:35:10;;;;;;;2.38;2.05;;;10.80;99.90;;;;;;5202152;28;20498;-72
2022/09/22 06:37:41;;;;;;;2.80;2.33;;;10.80;99.90;;;;;;5213286;28;20047;-71
2022/09/22 06:40:13;;;;;;;4.15;2.47;;;10.70;99.90;;;;;;5239644;28;20309;-72
2022/09/22 06:42:45;;;;;;;2.70;2.40;;;10.70;99.90;;;;;;5241655;28;20454;-72
2022/09/22 06:45:17;;;;;;;2.97;2.65;;;10.70;99.90;;;;;;5238094;28;20461;-72
2022/09/22 06:47:51;;;;;;;2.35;1.90;;;10.70;99.90;;;;;;5231774;28;20392;-72
2022/09/22 06:50:27;;;;;;;5.07;2.80;;;10.70;99.90;;;;;;5248728;28;20123;-72
2022/09/22 06:53:01;;;;;;;2.50;2.30;;;10.80;99.90;;;;;;5222280;28;20036;-72
2022/09/22 06:55:36;;;;;;;4.57;2.75;;;10.90;99.90;;;;;;5225626;28;20170;-72
2022/09/22 06:58:08;;;;;;;4.28;2.50;;;10.90;99.90;;;;;;5210571;28;20051;-73
2022/09/22 07:00:42;;;;;;;2.97;2.13;;;11.10;99.90;;;;;;5195056;28;20052;-72
2022/09/22 07:03:23;;;;;;;2.93;2.70;;;11.10;99.90;;;;;;5236973;28;20475;-72
2022/09/22 07:05:59;;;;;;;2.35;2.15;;;11.20;99.90;;;;;;5220866;28;20061;-73
2022/09/22 07:08:34;;;;;;;3.80;2.25;;;11.20;99.90;;;;;;5220660;28;20314;-74
2022/09/22 07:11:07;;;;;;;2.83;2.40;;;11.40;99.90;;;;;;5236484;28;20505;-74
2022/09/22 07:13:41;;;;;;;2.47;2.28;;;11.60;99.90;;;;;;5221833;28;20041;-73
2022/09/22 07:16:18;;;;;;;3.95;2.30;;;11.80;99.90;;;;;;5201342;28;20048;-73
2022/09/22 07:18:54;;;;;;;2.45;2.10;;;11.80;99.90;;;;;;5229923;28;20039;-74
2022/09/22 07:21:31;;;;;;;2.53;2.28;;;11.90;99.90;;;;;;5231837;28;20020;-73
2022/09/22 07:24:06;;;;;;;2.45;2.20;;;12.10;99.90;;;;;;5240164;28;20079;-73
2022/09/22 07:26:42;;;;;;;2.22;2.03;;;12.40;99.90;;;;;;5237164;28;20529;-73
2022/09/22 07:29:15;;;;;;;3.22;2.08;;;12.60;99.90;;;;;;5221881;28;20033;-73
2022/09/22 07:31:57;;;;;;;1.95;1.85;;;12.80;99.90;;;;;;5220628;28;20040;-73
2022/09/22 07:34:31;;;;;;;2.47;2.22;;;12.80;99.90;;;;;;5220224;28;20055;-73
2022/09/22 07:37:05;;;;;;;2.80;2.35;;;12.90;99.90;;;;;;5221222;28;20075;-74
2022/09/22 07:39:37;;;;;;;2.45;2.25;;;12.80;99.90;;;;;;5219448;28;20041;-73
2022/09/22 07:42:13;;;;;;;4.68;2.15;;;13.10;99.90;;;;;;5219718;28;20031;-73
2022/09/22 07:50:25;;;;;;;2.03;1.90;;;13.40;99.90;;;;;;5248654;28;20043;-74
2022/09/22 07:52:56;;;;;;;1.95;1.75;;;13.50;99.90;;;;;;5251764;28;20161;-73
2022/09/22 07:55:28;;;;;;;2.30;1.90;;;13.60;99.90;;;;;;5214432;28;20052;-73
2022/09/22 07:58:10;;;;;;;8.95;2.25;;;13.90;99.90;;;;;;5215710;28;20476;-73
2022/09/22 08:00:44;;;;;;;2.00;1.80;;;14.00;99.90;;;;;;5200083;28;20029;-74
2022/09/22 08:03:16;;;;;;;;;;;14.10;99.90;;;;;;5237365;28;20039;-73
2022/09/22 08:05:47;;;;;;;5.35;2.00;;;13.80;99.90;;;;;;5206691;28;20359;-74
2022/09/22 08:08:19;;;;;;;2.15;1.95;;;13.50;99.90;;;;;;5213291;28;20036;-74
2022/09/22 08:10:51;;;;;;;3.08;2.20;;;13.30;99.90;;;;;;5215478;28;20037;-74
2022/09/22 08:13:25;;;;;;;2.17;1.98;;;13.20;99.90;;;;;;5216557;28;20036;-74
2022/09/22 08:16:02;;;;;;;3.72;2.30;;;13.20;99.90;;;;;;5220302;28;20047;-73
2022/09/22 08:18:35;;;;;;;2.50;2.30;;;13.20;99.90;;;;;;5219884;28;20071;-71
2022/09/22 08:21:09;;;;;;;3.17;2.22;;;13.10;99.90;;;;;;5217259;28;20063;-72
2022/09/22 08:23:40;;;;;;;;;;;13.40;99.90;;;;;;5214974;28;20044;-72
2022/09/22 08:26:12;;;;;;;2.33;2.10;;;13.50;99.90;;;;;;5215671;28;19920;-72
2022/09/22 08:28:43;;;;;;;2.50;2.13;;;13.50;99.90;;;;;;5216644;28;20137;-73
2022/09/22 08:31:18;;;;;;;2.20;2.00;;;13.30;99.90;;;;;;5216471;28;20041;-72
2022/09/22 08:33:51;;;;;;;2.67;1.90;;;13.40;99.90;;;;;;5209240;28;20437;-72
2022/09/22 08:36:26;;;;;;;3.22;2.50;;;13.60;99.90;;;;;;5214103;28;20052;-72
2022/09/22 08:39:02;;;;;;;2.60;2.25;;;13.50;99.90;;;;;;5216039;28;20226;-73
2022/09/22 08:41:50;;;;;;;2.13;1.92;;;13.70;99.90;;;;;;5215509;28;20029;-73
2022/09/22 08:44:53;;;;;;;2.53;2.33;;;13.70;99.90;;;;;;5230771;28;20391;-73
2022/09/22 08:53:57;;;;;;;2.20;2.00;;;13.80;99.90;;;;;;5219700;28;20029;-72
2022/09/22 08:56:42;;;;;;;2.28;2.10;;;13.60;99.90;;;;;;5217301;28;20414;-72
2022/09/22 08:59:21;;;;;;;2.67;1.95;;;13.80;99.90;;;;;;5220180;28;20063;-71
2022/09/22 09:02:51;;;;;;;2.28;2.10;;;14.30;99.90;;;;;;5200783;28;20051;-71
2022/09/22 09:06:02;;;;;;;2.40;2.13;;;14.20;99.90;;;;;;5142008;28;20047;-71
2022/09/22 09:09:05;;;;;;;3.25;2.17;;;14.50;99.90;;;;;;5136378;28;20045;-71
2022/09/22 09:11:56;;;;;;;2.20;1.90;;;14.70;99.90;;;;;;5136469;28;20035;-72
2022/09/22 09:14:51;;;;;;;2.17;1.98;;;14.90;99.90;;;;;;5155899;28;20034;-73
2022/09/22 09:17:29;;;;;;;2.33;2.13;;;15.10;99.90;;;;;;5141042;28;20047;-72
2022/09/22 09:20:26;;;;;;;3.45;2.10;;;15.60;99.90;;;;;;5140085;28;20038;-74
2022/09/22 09:22:58;;;;;;;2.17;1.90;;;16.20;99.90;;;;;;5155425;28;20076;-74
2022/09/22 09:25:39;;;;;;;2.15;1.98;;;16.20;99.90;;;;;;5140024;28;20038;-74
2022/09/22 09:28:24;;;;;;;2.72;1.85;;;15.50;99.90;;;;;;5136101;28;20043;-74
2022/09/22 09:31:10;;;;;;;2.13;2.03;;;15.30;99.90;;;;;;5135959;28;20055;-73
2022/09/22 09:33:52;;;;;;;1.80;1.70;;;14.80;99.90;;;;;;5159341;28;20588;-72
2022/09/22 09:36:36;;;;;;;6.53;1.70;;;14.60;99.90;;;;;;5176590;28;20236;-73
2022/09/22 09:39:19;;;;;;;1.98;1.58;;;14.80;99.90;;;;;;5160117;28;20045;-73
2022/09/22 09:41:53;;;;;;;2.22;1.80;;;14.80;99.90;;;;;;5184687;28;20131;-72
2022/09/22 09:44:30;;;;;;;2.17;2.03;;;14.80;99.90;;;;;;5201429;28;20048;-73
2022/09/22 09:47:23;;;;;;;1.90;1.70;;;15.00;99.90;;;;;;5220775;28;20043;-72
2022/09/22 09:49:54;;;;;;;1.98;1.73;;;15.50;99.90;;;;;;5220426;28;20037;-73
2022/09/22 09:52:27;;;;;;;7.22;1.80;;;15.10;99.90;;;;;;5202378;28;20039;-71
2022/09/22 09:55:00;;;;;;;1.70;1.50;;;14.70;99.90;;;;;;5200471;28;20048;-71
2022/09/22 09:57:36;;;;;;;2.92;1.80;;;14.80;99.90;;;;;;5216035;28;20052;-72
2022/09/22 10:00:31;;;;;;;2.75;1.75;;;15.10;99.90;;;;;;5233916;28;20045;-72
2022/09/22 10:03:12;;;;;;;2.53;2.22;;;14.70;99.90;;;;;;5219454;28;20037;-72
2022/09/22 10:06:01;;;;;;;2.50;1.70;;;15.20;99.90;;;;;;5203560;28;20052;-74
2022/09/22 10:08:43;;;;;;;4.03;1.40;;;16.10;99.90;;;;;;5182373;28;20041;-72
2022/09/22 10:11:15;;;;;;;3.17;2.13;;;16.10;99.90;;;;;;5204118;28;20067;-70
2022/09/22 10:13:58;;;;;;;1.85;1.75;;;16.70;99.90;;;;;;5208226;28;20040;-72
2022/09/22 10:16:34;;;;;;;2.63;1.70;;;16.30;99.90;;;;;;5219009;28;20029;-72
2022/09/22 10:19:18;;;;;;;2.40;1.63;;;16.20;99.90;;;;;;5201966;28;20037;-72
2022/09/22 10:21:50;;;;;;;1.63;1.53;;;16.20;99.90;;;;;;5218502;28;20021;-72
2022/09/22 10:24:31;;;;;;;1.98;1.75;;;16.60;99.90;;;;;;5200842;28;20276;-72
2022/09/22 10:27:04;;;;;;;1.85;1.70;;;16.90;99.90;;;;;;5199876;28;20654;-73
2022/09/22 10:29:40;;;;;;;1.77;1.60;;;17.40;99.90;;;;;;5200391;28;20037;-73
2022/09/22 10:32:15;;;;;;;1.63;1.50;;;17.90;99.90;;;;;;5217127;28;20493;-73
2022/09/22 10:34:50;;;;;;;2.08;1.33;;;18.70;99.90;;;;;;5189044;28;20025;-73
2022/09/22 10:37:29;;;;;;;1.70;1.60;;;19.20;99.90;;;;;;5201458;28;20044;-72
2022/09/22 10:40:12;;;;;;;1.40;1.30;;;18.70;99.90;;;;;;5202120;28;20037;-73
2022/09/22 10:42:56;;;;;;;1.38;1.27;;;17.80;99.90;;;;;;5209495;28;20525;-72
2022/09/22 10:46:35;;;;;;;1.50;1.40;;;16.50;99.90;;;;;;5203092;28;20314;-72
2022/09/22 10:49:48;;;;;;;1.50;1.30;;;16.10;99.90;;;;;;5197595;28;20033;-72
2022/09/22 10:52:45;;;;;;;1.35;1.25;;;17.30;99.90;;;;;;5203735;28;20033;-73
2022/09/22 10:55:36;;;;;;;1.52;1.42;;;16.90;99.90;;;;;;5201981;28;20021;-73
2022/09/22 10:58:45;;;;;;;1.75;1.23;;;17.50;99.90;;;;;;5204571;28;20032;-73
2022/09/22 11:01:50;;;;;;;1.50;1.40;;;18.50;99.90;;;;;;5204190;28;20029;-73
2022/09/22 11:04:58;;;;;;;1.55;1.45;;;18.90;99.90;;;;;;5208356;28;20045;-73
2022/09/22 11:14:16;;;;;;;3.13;1.63;;;18.40;99.90;;;;;;5204975;28;20025;-72
2022/09/22 11:17:02;;;;;;;1.70;1.60;;;17.40;99.90;;;;;;5203081;28;20036;-72
2022/09/22 11:19:58;;;;;;;2.80;1.83;;;18.60;99.90;;;;;;5203935;28;20090;-73
2022/09/22 11:23:13;;;;;;;2.78;1.60;;;18.00;99.90;;;;;;5215301;28;20041;-73
2022/09/22 11:26:07;;;;;;;1.67;1.58;;;18.70;99.90;;;;;;5219947;28;20050;-72
2022/09/22 11:29:04;;;;;;;1.90;1.70;;;19.00;99.90;;;;;;5204571;28;20033;-71
2022/09/22 11:31:52;;;;;;;2.17;1.63;;;18.50;99.90;;;;;;5225399;28;20063;-72
2022/09/22 11:34:38;;;;;;;1.52;1.42;;;19.30;99.90;;;;;;5204042;28;20060;-72
2022/09/22 11:37:28;;;;;;;4.72;1.63;;;19.60;99.90;;;;;;5192675;28;20043;-72
2022/09/22 11:40:17;;;;;;;2.08;1.38;;;19.50;99.90;;;;;;5212934;28;20036;-74
2022/09/22 11:43:33;;;;;;;1.73;1.58;;;19.90;99.90;;;;;;5198324;28;20037;-73
2022/09/22 11:46:31;;;;;;;2.28;1.38;;;21.50;99.90;;;;;;5214688;28;20242;-71
2022/09/22 11:49:48;;;;;;;1.23;1.10;;;23.00;99.90;;;;;;5216714;28;20031;-72
2022/09/22 11:52:47;;;;;;;0.93;0.77;;;22.60;99.90;;;;;;5197273;28;20561;-71
2022/09/22 11:55:46;;;;;;;1.30;1.20;;;19.10;99.90;;;;;;5197216;28;20040;-72
2022/09/22 11:58:26;;;;;;;1.42;1.30;;;18.40;99.90;;;;;;5214021;28;20062;-72
2022/09/22 12:01:09;;;;;;;1.55;1.25;;;18.20;99.90;;;;;;5198929;28;20039;-72
2022/09/22 12:04:13;;;;;;;1.58;1.40;;;18.90;99.90;;;;;;5198494;28;20059;-72
2022/09/22 12:06:56;;;;;;;2.72;1.77;;;19.00;99.90;;;;;;5190721;28;20047;-73
2022/09/22 12:09:44;;;;;;;2.25;2.05;;;17.60;99.90;;;;;;5185666;28;20388;-72
2022/09/22 12:12:21;;;;;;;2.20;2.00;;;15.50;99.90;;;;;;5216157;28;20465;-72
2022/09/22 12:15:32;;;;;;;1.92;1.83;;;14.70;99.90;;;;;;5216309;28;20033;-72
2022/09/22 12:18:18;;;;;;;1.70;1.60;;;14.60;99.90;;;;;;5216211;28;20032;-72
2022/09/22 12:21:15;;;;;;;2.00;1.90;;;14.60;99.90;;;;;;5201066;28;20035;-72
2022/09/22 12:23:50;;;;;;;2.00;1.80;;;14.70;99.90;;;;;;5211259;28;20360;-73
2022/09/22 12:26:32;;;;;;;1.80;1.50;;;14.70;99.90;;;;;;5184287;28;20037;-72
2022/09/22 12:29:29;;;;;;;1.90;1.80;;;14.80;99.90;;;;;;5214034;28;20445;-72
2022/09/22 12:32:01;;;;;;;2.60;1.67;;;16.20;99.90;;;;;;5193420;28;20487;-73
2022/09/22 12:34:40;;;;;;;1.63;1.50;;;16.30;99.90;;;;;;5200641;28;20024;-72
2022/09/22 12:37:24;;;;;;;1.75;1.52;;;16.70;99.90;;;;;;5185095;28;20037;-72
2022/09/22 12:40:13;;;;;;;1.42;1.30;;;18.10;99.90;;;;;;5216770;28;20045;-72
2022/09/22 12:42:51;;;;;;;1.52;1.13;;;19.40;99.90;;;;;;5218227;28;20029;-72
2022/09/22 12:45:40;;;;;;;1.10;1.00;;;20.40;99.90;;;;;;5217201;28;20033;-73
2022/09/22 12:48:33;;;;;;;0.95;0.95;;;22.00;99.90;;;;;;5198373;28;20045;-73
2022/09/22 12:51:23;;;;;;;2.25;0.80;;;22.10;99.90;;;;;;5213932;28;20033;-72
2022/09/22 12:54:22;;;;;;;1.85;1.10;;;21.40;99.90;;;;;;5214753;28;20403;-72
2022/09/22 12:57:17;;;;;;;1.27;1.13;;;21.60;99.90;;;;;;5214157;28;20029;-73
2022/09/22 13:00:22;;;;;;;1.33;0.85;;;21.30;99.90;;;;;;5194905;28;20040;-72
2022/09/22 13:02:56;;;;;;;1.50;1.13;;;21.90;99.90;;;;;;5196427;28;20039;-72
2022/09/22 13:05:27;;;;;;;1.73;1.17;;;20.90;99.90;;;;;;5188478;28;20060;-72
2022/09/22 13:07:59;;;;;;;1.45;1.35;;;22.00;99.90;;;;;;5214554;28;20379;-72
2022/09/22 13:10:31;;;;;;;1.73;1.20;;;22.20;99.90;;;;;;5196600;28;20325;-72
2022/09/22 13:13:02;;;;;;;1.08;1.00;;;22.50;99.90;;;;;;5216738;28;20025;-72
2022/09/22 13:15:46;;;;;;;1.35;1.00;;;22.90;99.90;;;;;;5216200;28;20051;-72
2022/09/22 13:18:36;;;;;;;1.10;1.00;;;22.80;99.90;;;;;;5217457;28;20037;-72
2022/09/22 13:21:13;;;;;;;1.70;1.13;;;23.20;99.90;;;;;;5199311;28;20024;-72
2022/09/22 13:23:51;;;;;;;1.20;1.10;;;23.10;99.90;;;;;;5216910;28;20040;-72
2022/09/22 13:26:34;;;;;;;1.42;1.08;;;23.20;99.90;;;;;;5215037;28;20482;-72
2022/09/22 13:29:16;;;;;;;1.20;1.10;;;22.80;99.90;;;;;;5214497;28;20051;-74
2022/09/22 13:31:56;;;;;;;1.20;1.10;;;22.50;99.90;;;;;;5199109;28;20040;-72
2022/09/22 13:34:36;;;;;;;1.67;1.00;;;23.70;99.90;;;;;;5221002;28;20029;-71
2022/09/22 13:37:12;;;;;;;3.38;1.00;;;23.80;99.90;;;;;;5220901;28;20044;-72
2022/09/22 13:39:49;;;;;;;1.27;1.08;;;21.70;99.90;;;;;;5201249;28;20037;-72
2022/09/22 13:42:31;;;;;;;1.23;1.10;;;19.40;99.90;;;;;;5187049;28;20037;-72
2022/09/22 13:45:17;;;;;;;1.02;1.00;;;18.80;99.90;;;;;;5186764;28;20683;-72
2022/09/22 13:47:53;;;;;;;1.20;1.10;;;20.10;99.90;;;;;;5202107;28;20048;-71
2022/09/22 13:50:24;;;;;;;1.20;1.10;;;20.50;99.90;;;;;;5219941;28;20036;-71
2022/09/22 13:52:56;;;;;;;1.30;1.10;;;20.30;99.90;;;;;;5221006;28;20023;-72
2022/09/22 13:55:33;;;;;;;2.15;1.02;;;20.00;99.90;;;;;;5201943;28;20040;-72
2022/09/22 13:58:11;;;;;;;1.38;0.88;;;20.20;99.90;;;;;;5200153;28;20045;-72
2022/09/22 14:00:53;;;;;;;1.67;1.15;;;20.00;99.90;;;;;;5200186;28;20033;-74
2022/09/22 14:03:25;;;;;;;0.82;0.82;;;19.40;99.90;;;;;;5218842;28;20033;-73
2022/09/22 14:05:57;;;;;;;1.27;0.85;;;19.00;99.90;;;;;;5198767;28;20059;-74
2022/09/22 14:08:33;;;;;;;1.20;1.02;;;19.30;99.90;;;;;;5220062;28;20032;-72
2022/09/22 14:11:26;;;;;;;3.55;0.90;;;18.60;99.90;;;;;;5203214;28;20046;-72
2022/09/22 14:14:00;;;;;;;1.10;1.08;;;17.40;99.90;;;;;;5235188;28;20024;-71
2022/09/22 14:16:56;;;;;;;1.60;1.50;;;16.40;99.90;;;;;;5219999;28;20392;-73
2022/09/22 14:19:53;;;;;;;1.40;1.30;;;15.50;99.90;;;;;;5218364;28;21517;-73